Time;durP1;ratioP1;P1;durP2;ratioP2;P2;SDS_P1;SDS_P2;PMS_P1;PMS_P2;Temp;Humidity;BMP_temperature;BMP_pressure;BME280_temperature;BME280_humidity;BME280_pressure;Samples;Min_cycle;Max_cycle;Signal;HPM_P1;HPM_P2
2021/10/27 00:00:41;;;;;;;4.18;2.67;;;17.60;98.00;;;;;;5125157;27;20047;-52
2021/10/27 00:03:09;;;;;;;4.30;2.58;;;17.60;98.00;;;;;;5110648;27;20516;-54
2021/10/27 00:05:36;;;;;;;5.32;2.50;;;17.60;98.00;;;;;;5122737;27;20035;-56
2021/10/27 00:08:05;;;;;;;4.78;3.33;;;17.60;98.00;;;;;;5111508;27;20054;-55
2021/10/27 00:10:33;;;;;;;4.95;2.35;;;17.60;98.00;;;;;;5122390;27;20505;-54
2021/10/27 00:13:01;;;;;;;5.13;2.30;;;17.50;98.10;;;;;;5127633;27;20182;-55
2021/10/27 00:15:29;;;;;;;4.10;2.38;;;17.60;98.10;;;;;;5088342;27;20063;-51
2021/10/27 00:17:57;;;;;;;4.53;2.15;;;17.50;98.10;;;;;;5120770;27;20528;-53
2021/10/27 00:20:24;;;;;;;4.57;2.47;;;17.50;98.20;;;;;;5120500;27;20032;-54
2021/10/27 00:22:52;;;;;;;3.53;2.40;;;17.50;98.20;;;;;;5096839;27;20046;-54
2021/10/27 00:25:20;;;;;;;6.07;2.90;;;17.50;98.10;;;;;;5124252;27;20492;-51
2021/10/27 00:27:47;;;;;;;4.40;2.40;;;17.50;98.10;;;;;;5119295;27;20043;-50
2021/10/27 00:30:15;;;;;;;3.42;2.50;;;17.50;98.10;;;;;;5097809;28;20040;-51
2021/10/27 00:32:43;;;;;;;4.20;2.80;;;17.50;98.10;;;;;;5116661;27;20043;-56
2021/10/27 00:35:11;;;;;;;3.58;2.25;;;17.50;97.90;;;;;;5121758;27;20044;-51
2021/10/27 00:37:38;;;;;;;5.40;2.85;;;17.50;98.00;;;;;;5129276;27;20070;-54
2021/10/27 00:40:07;;;;;;;5.05;2.20;;;17.40;97.90;;;;;;5119231;27;20046;-53
2021/10/27 00:42:34;;;;;;;4.07;2.70;;;17.40;97.90;;;;;;5131190;27;20035;-52
2021/10/27 00:45:03;;;;;;;3.53;2.20;;;17.40;97.90;;;;;;5123176;27;20055;-54
2021/10/27 00:47:30;;;;;;;8.25;3.28;;;17.40;97.90;;;;;;5102404;27;20047;-49
2021/10/27 00:49:58;;;;;;;4.07;2.42;;;17.40;97.90;;;;;;5125377;27;20072;-51
2021/10/27 00:52:25;;;;;;;4.68;3.05;;;17.40;97.90;;;;;;5108183;27;20097;-50
2021/10/27 00:54:53;;;;;;;6.30;3.10;;;17.40;97.90;;;;;;5124211;27;20096;-53
2021/10/27 00:57:23;;;;;;;3.92;2.33;;;17.30;97.90;;;;;;5108961;27;20054;-49
2021/10/27 00:59:51;;;;;;;4.50;2.15;;;17.30;97.90;;;;;;5103873;27;20058;-52
2021/10/27 01:02:20;;;;;;;4.47;2.78;;;17.30;97.90;;;;;;5108018;28;20047;-50
2021/10/27 01:04:48;;;;;;;7.65;2.58;;;17.30;97.90;;;;;;5126586;27;20031;-52
2021/10/27 01:07:16;;;;;;;4.05;2.38;;;17.30;97.90;;;;;;5115287;28;20145;-51
2021/10/27 01:09:44;;;;;;;5.00;2.35;;;17.30;98.00;;;;;;5097525;28;20052;-50
2021/10/27 01:12:12;;;;;;;7.13;2.38;;;17.30;98.00;;;;;;5114333;28;20088;-51
2021/10/27 01:14:42;;;;;;;4.20;3.10;;;17.20;98.00;;;;;;5114174;28;20164;-51
2021/10/27 01:17:17;;;;;;;3.97;2.25;;;17.20;98.00;;;;;;5114159;28;20093;-54
2021/10/27 01:19:52;;;;;;;5.03;2.30;;;17.20;98.00;;;;;;5114139;28;20051;-52
2021/10/27 01:22:22;;;;;;;6.22;2.80;;;17.20;98.10;;;;;;5115364;28;20044;-54
2021/10/27 01:24:51;;;;;;;3.95;2.30;;;17.20;98.10;;;;;;5097131;28;20043;-51
2021/10/27 01:27:19;;;;;;;4.47;2.40;;;17.20;98.20;;;;;;5112696;28;20043;-53
2021/10/27 01:29:47;;;;;;;4.53;2.72;;;17.10;98.20;;;;;;5114174;28;20035;-52
2021/10/27 01:32:40;;;;;;;4.60;2.50;;;17.10;98.30;;;;;;5114136;28;20121;-51
2021/10/27 01:35:08;;;;;;;4.68;2.85;;;17.10;98.30;;;;;;5113914;28;20048;-53
2021/10/27 01:37:37;;;;;;;3.40;2.28;;;17.10;98.40;;;;;;5113847;28;20055;-54
2021/10/27 01:40:17;;;;;;;4.65;3.15;;;17.10;98.40;;;;;;5096869;28;20039;-54
2021/10/27 01:42:45;;;;;;;5.93;3.05;;;17.10;98.50;;;;;;5113825;28;20085;-51
2021/10/27 01:45:14;;;;;;;3.72;2.35;;;17.10;98.50;;;;;;5113703;28;20062;-54
2021/10/27 01:47:43;;;;;;;7.25;2.97;;;17.10;98.50;;;;;;5096043;28;20088;-52
2021/10/27 01:50:12;;;;;;;4.75;2.40;;;17.10;98.60;;;;;;5113490;28;20052;-54
2021/10/27 01:52:40;;;;;;;3.47;2.42;;;17.10;98.60;;;;;;5080031;28;20047;-51
2021/10/27 01:55:08;;;;;;;4.63;2.63;;;17.10;98.70;;;;;;5113563;28;20106;-54
2021/10/27 01:57:35;;;;;;;5.13;3.20;;;17.00;98.70;;;;;;5113642;28;20040;-51
2021/10/27 02:00:08;;;;;;;6.65;3.30;;;17.00;98.80;;;;;;5113449;28;20070;-51
2021/10/27 02:02:41;;;;;;;3.95;2.30;;;17.00;98.90;;;;;;5114682;28;20031;-52
2021/10/27 02:05:09;;;;;;;6.45;2.85;;;17.00;99.00;;;;;;5114373;28;20050;-50
2021/10/27 02:07:36;;;;;;;4.68;2.60;;;17.00;99.00;;;;;;5113318;28;20043;-50
2021/10/27 02:10:07;;;;;;;5.50;2.55;;;17.00;99.00;;;;;;5113460;28;20051;-49
2021/10/27 02:12:39;;;;;;;5.53;2.67;;;17.00;99.00;;;;;;5113333;28;20062;-52
2021/10/27 02:15:11;;;;;;;5.10;3.05;;;17.00;99.10;;;;;;5114303;28;20039;-53
2021/10/27 02:17:39;;;;;;;7.28;3.30;;;17.00;99.10;;;;;;5114436;28;20415;-54
2021/10/27 02:20:07;;;;;;;4.13;2.40;;;17.00;99.10;;;;;;5113087;28;20122;-52
2021/10/27 02:22:36;;;;;;;4.47;2.45;;;17.00;99.20;;;;;;5096525;28;20044;-52
2021/10/27 02:25:04;;;;;;;4.85;2.85;;;17.00;99.30;;;;;;5112971;28;20142;-50
2021/10/27 02:27:31;;;;;;;4.53;2.42;;;17.00;99.30;;;;;;5096102;28;20071;-53
2021/10/27 02:29:59;;;;;;;5.40;2.72;;;17.00;99.40;;;;;;5113224;28;20128;-51
2021/10/27 02:32:26;;;;;;;4.32;2.70;;;16.90;99.40;;;;;;5096153;28;20485;-51
2021/10/27 02:34:54;;;;;;;4.53;2.70;;;16.90;99.40;;;;;;5114310;28;20127;-53
2021/10/27 02:37:21;;;;;;;3.95;2.63;;;16.90;99.50;;;;;;5114041;28;20071;-50
2021/10/27 02:39:49;;;;;;;4.18;2.50;;;16.90;99.50;;;;;;5112143;28;20146;-50
2021/10/27 02:42:17;;;;;;;4.35;3.15;;;16.90;99.60;;;;;;5112904;28;20049;-50
2021/10/27 02:44:44;;;;;;;3.90;2.25;;;16.90;99.70;;;;;;5095473;28;20054;-50
2021/10/27 02:47:12;;;;;;;4.75;2.85;;;16.90;99.70;;;;;;5096317;28;20490;-51
2021/10/27 02:49:39;;;;;;;6.22;2.92;;;16.90;99.80;;;;;;5112837;28;20386;-50
2021/10/27 02:52:07;;;;;;;5.72;2.55;;;16.90;99.90;;;;;;5095955;28;20379;-51
2021/10/27 02:54:35;;;;;;;5.45;3.08;;;16.80;99.90;;;;;;5112706;28;20071;-53
2021/10/27 02:57:03;;;;;;;2.85;2.10;;;16.80;99.90;;;;;;5112745;28;20063;-50
2021/10/27 02:59:31;;;;;;;4.47;2.63;;;16.80;99.90;;;;;;5115461;28;20538;-52
2021/10/27 03:01:59;;;;;;;4.82;2.42;;;16.80;99.90;;;;;;5116774;28;20486;-51
2021/10/27 03:04:27;;;;;;;6.10;2.78;;;16.80;99.90;;;;;;5116867;28;20039;-51
2021/10/27 03:06:54;;;;;;;4.93;2.65;;;16.80;99.90;;;;;;5116609;28;20127;-50
2021/10/27 03:09:22;;;;;;;4.53;2.70;;;16.80;99.90;;;;;;5116641;28;20040;-53
2021/10/27 03:11:52;;;;;;;4.55;2.65;;;16.80;99.90;;;;;;5116751;28;20050;-50
2021/10/27 03:14:20;;;;;;;3.40;2.13;;;16.80;99.90;;;;;;5116516;28;20078;-50
2021/10/27 03:16:48;;;;;;;4.18;2.58;;;16.70;99.90;;;;;;5083138;28;20052;-53
2021/10/27 03:19:15;;;;;;;4.70;3.33;;;16.70;99.90;;;;;;5116532;28;20165;-52
2021/10/27 03:21:43;;;;;;;4.15;2.67;;;16.70;99.90;;;;;;5116587;28;20082;-51
2021/10/27 03:24:11;;;;;;;3.55;2.65;;;16.70;99.90;;;;;;5116748;28;20055;-50
2021/10/27 03:26:38;;;;;;;4.05;3.08;;;16.70;99.90;;;;;;5116187;28;20044;-50
2021/10/27 03:29:06;;;;;;;3.65;2.63;;;16.70;99.90;;;;;;5116304;28;20039;-50
2021/10/27 03:31:34;;;;;;;3.63;2.45;;;16.70;99.90;;;;;;5116261;28;20134;-53
2021/10/27 03:34:02;;;;;;;4.57;2.40;;;16.70;99.90;;;;;;5116132;28;20439;-51
2021/10/27 03:36:30;;;;;;;4.65;2.80;;;16.70;99.90;;;;;;5115930;28;20051;-52
2021/10/27 03:38:58;;;;;;;4.63;2.28;;;16.70;99.90;;;;;;5099674;28;20043;-50
2021/10/27 03:41:26;;;;;;;5.53;2.25;;;16.70;99.90;;;;;;5099330;28;20051;-50
2021/10/27 03:43:53;;;;;;;6.95;2.58;;;16.70;99.90;;;;;;5116175;28;20042;-49
2021/10/27 03:46:21;;;;;;;5.20;2.63;;;16.70;99.90;;;;;;5117060;28;20489;-51
2021/10/27 03:48:48;;;;;;;6.50;3.05;;;16.60;99.90;;;;;;5115996;28;20128;-50
2021/10/27 03:51:16;;;;;;;5.18;3.58;;;16.70;99.90;;;;;;5116175;28;20485;-51
2021/10/27 03:53:44;;;;;;;4.88;2.60;;;16.60;99.90;;;;;;5115875;28;20097;-51
2021/10/27 03:56:12;;;;;;;5.30;2.78;;;16.60;99.90;;;;;;5115791;28;20068;-50
2021/10/27 03:58:40;;;;;;;5.25;2.78;;;16.60;99.90;;;;;;5115819;28;20047;-49
2021/10/27 04:01:08;;;;;;;4.68;3.10;;;16.60;99.90;;;;;;5082165;28;20393;-50
2021/10/27 04:03:36;;;;;;;4.68;2.65;;;16.60;99.90;;;;;;5098851;28;20059;-53
2021/10/27 04:06:04;;;;;;;6.15;3.25;;;16.60;99.90;;;;;;5116741;27;20064;-52
2021/10/27 04:08:31;;;;;;;5.55;2.90;;;16.50;99.90;;;;;;5082328;28;20443;-51
2021/10/27 04:10:59;;;;;;;4.00;2.33;;;16.60;99.90;;;;;;5098088;28;20043;-51
2021/10/27 04:13:27;;;;;;;4.75;3.05;;;16.60;99.90;;;;;;5115487;28;20046;-49
2021/10/27 04:15:54;;;;;;;3.88;2.20;;;16.50;99.90;;;;;;5115189;28;20075;-51
2021/10/27 04:18:21;;;;;;;5.10;2.60;;;16.50;99.90;;;;;;5098850;28;20088;-50
2021/10/27 04:20:49;;;;;;;4.18;2.53;;;16.50;99.90;;;;;;5116405;27;20050;-48
2021/10/27 04:23:17;;;;;;;4.95;2.63;;;16.50;99.90;;;;;;5098559;28;20043;-49
2021/10/27 04:25:44;;;;;;;3.95;2.67;;;16.50;99.90;;;;;;5115231;28;20081;-51
2021/10/27 04:28:13;;;;;;;5.80;2.50;;;16.50;99.90;;;;;;5098306;28;20039;-52
2021/10/27 04:30:41;;;;;;;6.32;2.67;;;16.40;99.90;;;;;;5098391;28;20047;-50
2021/10/27 04:33:21;;;;;;;3.78;2.45;;;16.40;99.90;;;;;;5115115;28;20048;-50
2021/10/27 04:35:52;;;;;;;6.78;2.58;;;16.40;99.90;;;;;;5114408;28;20043;-49
2021/10/27 04:38:20;;;;;;;4.55;2.45;;;16.40;99.90;;;;;;5115117;28;20040;-49
2021/10/27 04:40:48;;;;;;;4.40;2.38;;;16.40;99.90;;;;;;5114813;28;20067;-50
2021/10/27 04:43:16;;;;;;;7.95;2.90;;;16.30;99.90;;;;;;5115076;28;20402;-49
2021/10/27 04:45:43;;;;;;;4.82;2.20;;;16.30;99.90;;;;;;5098226;28;20044;-51
2021/10/27 04:48:13;;;;;;;5.38;2.63;;;16.30;99.90;;;;;;5114901;28;20047;-53
2021/10/27 04:50:40;;;;;;;6.47;3.08;;;16.30;99.90;;;;;;5114752;28;20074;-53
2021/10/27 04:53:16;;;;;;;3.42;2.30;;;16.30;99.90;;;;;;5115949;28;20512;-50
2021/10/27 04:55:44;;;;;;;5.85;2.35;;;16.30;99.90;;;;;;5098306;28;20052;-50
2021/10/27 04:58:13;;;;;;;4.43;2.28;;;16.30;99.90;;;;;;5114702;28;20042;-53
2021/10/27 05:00:41;;;;;;;4.05;2.40;;;16.30;99.90;;;;;;5097684;28;20498;-51
2021/10/27 05:03:09;;;;;;;5.20;2.53;;;16.30;99.90;;;;;;5114564;28;20043;-49
2021/10/27 05:05:45;;;;;;;5.75;3.30;;;16.30;99.90;;;;;;5080646;28;20044;-50
2021/10/27 05:08:15;;;;;;;3.47;2.33;;;16.30;99.90;;;;;;5098010;28;20059;-50
2021/10/27 05:10:42;;;;;;;5.05;3.05;;;16.40;99.90;;;;;;5114670;28;20448;-50
2021/10/27 05:13:10;;;;;;;3.97;2.78;;;16.30;99.90;;;;;;5114569;28;20032;-53
2021/10/27 05:15:38;;;;;;;4.88;2.42;;;16.40;99.90;;;;;;5114146;28;20039;-54
2021/10/27 05:18:05;;;;;;;3.05;1.98;;;16.40;99.90;;;;;;5115550;28;20451;-51
2021/10/27 05:20:33;;;;;;;5.05;2.47;;;16.40;99.90;;;;;;5114187;28;20040;-49
2021/10/27 05:23:01;;;;;;;6.35;2.35;;;16.40;99.90;;;;;;5114173;28;20401;-53
2021/10/27 05:25:29;;;;;;;4.97;3.25;;;16.40;99.90;;;;;;5097158;28;20040;-51
2021/10/27 05:27:57;;;;;;;6.55;3.55;;;16.40;99.90;;;;;;5115226;28;20050;-50
2021/10/27 05:30:27;;;;;;;6.13;2.85;;;16.50;99.90;;;;;;5097416;28;20070;-49
2021/10/27 05:32:57;;;;;;;5.95;3.00;;;16.50;99.90;;;;;;5113899;28;20499;-50
2021/10/27 05:35:27;;;;;;;4.28;2.30;;;16.70;99.90;;;;;;5115451;28;20394;-49
2021/10/27 05:37:55;;;;;;;5.30;3.08;;;16.80;99.90;;;;;;5096817;28;20055;-52
2021/10/27 05:40:23;;;;;;;7.65;2.80;;;16.90;99.90;;;;;;5113822;28;20042;-50
2021/10/27 05:42:52;;;;;;;4.20;2.38;;;17.00;99.90;;;;;;5113910;28;20475;-50
2021/10/27 05:45:23;;;;;;;6.88;3.15;;;17.10;99.90;;;;;;5113715;28;20043;-51
2021/10/27 05:47:55;;;;;;;3.55;2.30;;;17.10;99.90;;;;;;5115012;28;20046;-50
2021/10/27 05:50:43;;;;;;;4.65;2.55;;;17.10;99.90;;;;;;5113648;28;20473;-53
2021/10/27 05:55:56;;;;;;;5.57;3.10;;;17.30;99.90;;;;;;5113616;28;20039;-52
2021/10/27 05:58:24;;;;;;;5.10;3.00;;;17.50;99.90;;;;;;5113425;28;20466;-50
2021/10/27 06:00:52;;;;;;;9.60;4.00;;;17.80;99.90;;;;;;5096462;28;20110;-51
2021/10/27 06:03:20;;;;;;;6.60;4.00;;;18.10;99.90;;;;;;5113399;28;20084;-53
2021/10/27 06:05:48;;;;;;;6.78;3.58;;;18.50;99.40;;;;;;5114374;28;20048;-51
2021/10/27 06:08:16;;;;;;;9.95;5.30;;;18.90;98.90;;;;;;5113334;28;20486;-54
2021/10/27 06:10:44;;;;;;;9.50;3.85;;;19.30;98.50;;;;;;5113425;28;20489;-53
2021/10/27 06:13:14;;;;;;;6.90;3.72;;;19.80;97.80;;;;;;5113283;28;20043;-54
2021/10/27 06:15:42;;;;;;;10.00;3.33;;;20.30;97.10;;;;;;5113235;28;20130;-53
2021/10/27 06:18:11;;;;;;;4.90;3.33;;;20.80;96.50;;;;;;5096658;28;20232;-50
2021/10/27 06:20:39;;;;;;;9.38;3.65;;;21.30;96.00;;;;;;5114231;28;20048;-53
2021/10/27 06:23:07;;;;;;;7.25;3.15;;;21.90;95.40;;;;;;5113269;28;20485;-55
2021/10/27 06:25:35;;;;;;;10.05;3.40;;;22.50;94.80;;;;;;5113079;28;20035;-55
2021/10/27 06:28:10;;;;;;;8.38;3.08;;;23.00;94.00;;;;;;5114279;28;20100;-53
2021/10/27 06:36:42;;;;;;;5.60;2.93;;;24.60;92.10;;;;;;5096227;28;20064;-55
2021/10/27 06:46:45;;;;;;;5.47;2.90;;;24.40;91.70;;;;;;5095970;28;20490;-53
2021/10/27 06:49:12;;;;;;;5.35;3.17;;;24.10;92.00;;;;;;5112924;28;20043;-55
2021/10/27 06:51:40;;;;;;;4.93;2.83;;;23.90;92.20;;;;;;5112744;28;20044;-52
2021/10/27 06:54:08;;;;;;;5.95;2.80;;;23.70;92.30;;;;;;5113766;28;20386;-54
2021/10/27 06:56:36;;;;;;;5.65;3.28;;;23.70;92.50;;;;;;5113022;28;20043;-53
2021/10/27 07:15:27;;;;;;;6.68;2.47;;;24.20;91.70;;;;;;5095641;28;20108;-52
2021/10/27 07:17:55;;;;;;;6.50;3.13;;;24.20;91.80;;;;;;5112575;28;20040;-54
2021/10/27 07:20:24;;;;;;;5.40;3.35;;;24.10;91.90;;;;;;5112500;28;20437;-56
2021/10/27 07:22:59;;;;;;;4.25;2.28;;;23.90;91.90;;;;;;5095133;28;20047;-56
2021/10/27 07:25:36;;;;;;;3.30;1.90;;;23.70;91.80;;;;;;5095506;28;20044;-55
2021/10/27 07:28:04;;;;;;;3.55;1.83;;;23.40;91.20;;;;;;5095732;28;20293;-54
2021/10/27 07:30:32;;;;;;;7.45;2.25;;;23.10;91.60;;;;;;5112507;28;20054;-57
2021/10/27 07:33:00;;;;;;;4.80;2.00;;;22.90;91.40;;;;;;5112375;28;20439;-52
2021/10/27 07:35:36;;;;;;;4.13;2.42;;;22.80;91.40;;;;;;5112393;28;20085;-57
2021/10/27 07:40:49;;;;;;;2.63;1.63;;;22.70;91.70;;;;;;5095486;28;20047;-54
2021/10/27 07:43:24;;;;;;;5.63;2.40;;;22.60;91.90;;;;;;5095652;28;20044;-54
2021/10/27 07:45:53;;;;;;;3.60;2.08;;;22.60;92.00;;;;;;5096944;28;20100;-55
2021/10/27 07:48:22;;;;;;;3.65;1.92;;;22.70;91.70;;;;;;5082057;28;20044;-50
2021/10/27 07:50:51;;;;;;;3.65;2.05;;;22.70;91.80;;;;;;5115874;28;20049;-50
2021/10/27 07:53:20;;;;;;;4.03;2.00;;;22.80;91.60;;;;;;5117340;28;20076;-53
2021/10/27 07:55:51;;;;;;;3.65;1.88;;;22.90;91.60;;;;;;5115919;28;20039;-53
2021/10/27 07:58:19;;;;;;;4.57;2.33;;;22.90;91.60;;;;;;5098828;28;20085;-54
2021/10/27 08:00:50;;;;;;;3.78;1.92;;;23.00;91.30;;;;;;5116938;27;20043;-53
2021/10/27 08:03:18;;;;;;;3.08;1.77;;;22.90;91.30;;;;;;5099154;28;20147;-54
2021/10/27 08:05:47;;;;;;;5.18;2.58;;;22.90;91.50;;;;;;5099027;28;20065;-55
2021/10/27 08:08:21;;;;;;;5.57;3.35;;;22.90;91.50;;;;;;5081938;28;20044;-56
2021/10/27 08:10:50;;;;;;;3.95;2.03;;;22.90;91.70;;;;;;5116971;28;20047;-55
2021/10/27 08:13:20;;;;;;;3.78;1.90;;;22.90;91.70;;;;;;5116604;28;20042;-58
2021/10/27 08:15:48;;;;;;;3.28;2.38;;;22.90;91.80;;;;;;5115309;28;20546;-57
2021/10/27 08:18:17;;;;;;;4.85;2.40;;;23.10;92.00;;;;;;5115752;28;20048;-57
2021/10/27 08:20:46;;;;;;;5.97;2.35;;;23.00;92.00;;;;;;5081622;28;20580;-57
2021/10/27 08:23:18;;;;;;;4.45;2.72;;;22.90;91.60;;;;;;5098635;28;20485;-57
2021/10/27 08:25:54;;;;;;;5.38;2.90;;;22.70;91.90;;;;;;5116331;28;20043;-57
2021/10/27 08:28:30;;;;;;;4.55;2.20;;;22.80;92.10;;;;;;5115209;28;20043;-57
2021/10/27 08:36:23;;;;;;;4.32;2.25;;;22.70;91.60;;;;;;5115962;28;20178;-57
2021/10/27 08:38:52;;;;;;;5.07;2.00;;;22.80;92.00;;;;;;5115013;28;20047;-57
2021/10/27 08:41:38;;;;;;;5.07;2.83;;;22.70;91.90;;;;;;5116494;28;20047;-57
2021/10/27 08:44:07;;;;;;;5.68;2.67;;;22.60;92.30;;;;;;5116009;28;20063;-58
2021/10/27 08:46:35;;;;;;;4.18;2.05;;;22.70;92.30;;;;;;5114657;28;20074;-58
2021/10/27 08:49:05;;;;;;;6.07;3.13;;;22.70;92.40;;;;;;5098069;28;20063;-58
2021/10/27 08:51:34;;;;;;;6.22;2.28;;;22.70;92.50;;;;;;5098105;28;20060;-58
2021/10/27 08:54:06;;;;;;;5.35;2.28;;;22.90;93.40;;;;;;5115545;28;20073;-58
2021/10/27 08:56:35;;;;;;;5.63;2.75;;;22.80;94.00;;;;;;5114419;28;20146;-57
2021/10/27 08:59:14;;;;;;;5.18;2.42;;;22.60;94.30;;;;;;5115729;28;20482;-58
2021/10/27 09:10:31;;;;;;;6.32;2.60;;;22.20;94.80;;;;;;5097799;28;20134;-57
2021/10/27 10:06:48;;;;;;;8.30;3.20;;;22.20;93.50;;;;;;5113255;28;20086;-58
2021/10/27 10:09:17;;;;;;;5.50;2.63;;;22.50;93.30;;;;;;5112711;28;20083;-58
2021/10/27 10:11:47;;;;;;;4.97;2.75;;;22.60;93.00;;;;;;5079457;28;20046;-58
2021/10/27 10:14:15;;;;;;;6.28;2.80;;;22.60;93.00;;;;;;5096293;28;20035;-58
2021/10/27 10:16:48;;;;;;;5.70;2.85;;;22.70;92.80;;;;;;5113373;28;20500;-58
2021/10/27 10:19:19;;;;;;;5.90;3.30;;;22.70;92.80;;;;;;5113326;28;20039;-58
2021/10/27 10:21:51;;;;;;;5.95;2.88;;;22.70;92.90;;;;;;5096658;28;20043;-58
2021/10/27 10:26:52;;;;;;;4.35;3.60;;;22.40;92.90;;;;;;5112545;28;20040;-58
2021/10/27 10:29:45;;;;;;;4.65;3.25;;;22.40;93.20;;;;;;5114449;28;20050;-58
2021/10/27 10:32:24;;;;;;;9.90;3.50;;;22.20;93.50;;;;;;5103327;28;20055;-57
2021/10/27 10:35:15;;;;;;;4.75;3.08;;;22.20;93.60;;;;;;5095422;28;20043;-58
2021/10/27 10:40:40;;;;;;;6.20;3.20;;;22.00;94.40;;;;;;5096222;28;20071;-55
2021/10/27 11:40:27;;;;;;;10.38;3.97;;;21.40;93.90;;;;;;5117676;28;20046;-56
2021/10/27 11:45:38;;;;;;;9.10;4.38;;;21.20;95.90;;;;;;5117110;28;20051;-56
2021/10/27 11:48:18;;;;;;;11.70;4.28;;;21.30;96.20;;;;;;5115599;28;20035;-58
2021/10/27 11:50:46;;;;;;;7.78;3.63;;;21.30;96.20;;;;;;5115932;28;20123;-56
2021/10/27 11:53:25;;;;;;;6.43;3.63;;;21.30;96.30;;;;;;5115945;28;20047;-50
2021/10/27 11:55:54;;;;;;;8.02;3.50;;;21.40;96.30;;;;;;5114999;28;20043;-50
2021/10/27 11:58:36;;;;;;;8.07;4.65;;;21.40;96.40;;;;;;5114001;28;20039;-52
2021/10/27 12:01:06;;;;;;;8.98;3.90;;;21.40;96.40;;;;;;5079904;28;20050;-52
2021/10/27 12:03:43;;;;;;;6.65;4.00;;;21.30;96.70;;;;;;5096108;28;20051;-50
2021/10/27 12:06:46;;;;;;;13.18;4.43;;;21.30;96.80;;;;;;5115472;28;20489;-54
2021/10/27 12:09:32;;;;;;;7.40;3.83;;;21.30;96.90;;;;;;5096992;28;20043;-55
2021/10/27 12:17:24;;;;;;;7.60;4.57;;;21.40;96.40;;;;;;5114967;28;20047;-54
2021/10/27 12:19:53;;;;;;;7.90;3.63;;;21.10;96.70;;;;;;5113715;28;20044;-51
2021/10/27 12:22:22;;;;;;;21.00;5.25;;;21.00;96.60;;;;;;5080346;28;20806;-50
2021/10/27 12:24:55;;;;;;;11.73;5.15;;;21.00;96.80;;;;;;5113719;28;20448;-52
2021/10/27 12:27:30;;;;;;;7.75;4.13;;;21.10;97.00;;;;;;5096784;28;20078;-54
2021/10/27 12:30:01;;;;;;;7.75;4.78;;;21.20;97.00;;;;;;5114972;28;20151;-53
2021/10/27 12:32:29;;;;;;;13.50;4.85;;;21.30;96.80;;;;;;5096423;28;20047;-52
2021/10/27 12:35:09;;;;;;;11.50;4.90;;;21.30;96.60;;;;;;5113322;28;20703;-52
2021/10/27 12:40:38;;;;;;;10.25;4.32;;;21.20;96.50;;;;;;5114058;28;20398;-55
2021/10/27 12:43:10;;;;;;;9.50;4.50;;;21.10;96.50;;;;;;5113086;28;20068;-55
2021/10/27 12:45:46;;;;;;;8.32;4.93;;;21.10;96.60;;;;;;5096450;28;20069;-54
2021/10/27 12:48:17;;;;;;;6.35;4.28;;;21.00;97.00;;;;;;5114425;28;20550;-52
2021/10/27 12:50:57;;;;;;;11.27;4.45;;;21.00;96.90;;;;;;5095973;28;20039;-60
2021/10/27 12:53:47;;;;;;;6.13;3.67;;;21.00;97.80;;;;;;5112965;28;20040;-62
2021/10/27 12:56:26;;;;;;;6.72;4.13;;;21.00;98.60;;;;;;5096049;28;20051;-61
2021/10/27 12:59:02;;;;;;;8.77;4.53;;;21.00;98.70;;;;;;5112612;28;20055;-60
2021/10/27 13:01:47;;;;;;;;;;;20.90;99.10;;;;;;5096280;28;20051;-62
2021/10/27 13:06:54;;;;;;;10.27;4.22;;;20.80;99.50;;;;;;5112560;28;20039;-61
2021/10/27 13:17:34;;;;;;;9.35;4.97;;;20.30;99.90;;;;;;5114223;28;20035;-60
2021/10/27 13:30:47;;;;;;;8.43;4.97;;;20.20;99.90;;;;;;5065249;28;20154;-60
2021/10/27 13:33:18;;;;;;;10.85;5.75;;;20.30;99.90;;;;;;5112589;28;20089;-60
2021/10/27 13:35:46;;;;;;;8.98;4.78;;;20.30;99.90;;;;;;5112603;28;20342;-60
2021/10/27 13:38:17;;;;;;;10.13;5.13;;;20.20;99.90;;;;;;5113296;28;20044;-60
2021/10/27 13:40:46;;;;;;;8.60;4.70;;;20.20;99.90;;;;;;5113366;28;20035;-59
2021/10/27 13:43:19;;;;;;;9.82;4.70;;;20.20;99.90;;;;;;5112259;28;20032;-60
2021/10/27 14:07:58;;;;;;;8.50;4.35;;;19.80;99.90;;;;;;5096373;28;20464;-59
2021/10/27 14:10:46;;;;;;;10.35;4.55;;;19.70;99.90;;;;;;5098572;28;20071;-58
2021/10/27 14:16:19;;;;;;;10.02;4.05;;;19.60;99.90;;;;;;5096225;28;20056;-58
2021/10/27 15:22:18;;;;;;;9.48;4.25;;;19.20;98.80;;;;;;5117505;28;20104;-58
2021/10/27 15:30:19;;;;;;;;;;;19.10;98.50;;;;;;5099707;28;20047;-57
2021/10/27 15:51:55;;;;;;;7.55;3.70;;;18.80;98.60;;;;;;5098924;28;20042;-57
2021/10/27 15:54:24;;;;;;;7.28;3.60;;;18.80;98.70;;;;;;5116231;28;20036;-57
2021/10/27 15:56:52;;;;;;;5.95;3.75;;;18.70;98.80;;;;;;5115898;28;20143;-59
2021/10/27 15:59:20;;;;;;;10.48;4.00;;;18.80;98.90;;;;;;5115857;28;20048;-56
2021/10/27 16:01:48;;;;;;;10.05;4.03;;;18.70;98.90;;;;;;5117184;28;20130;-57
2021/10/27 16:04:16;;;;;;;7.55;3.53;;;18.70;98.90;;;;;;5115604;28;20560;-57
2021/10/27 16:06:52;;;;;;;10.55;4.47;;;18.70;98.90;;;;;;5097908;28;20072;-57
2021/10/27 16:09:24;;;;;;;;;;;18.60;99.00;;;;;;5116152;28;20070;-56
2021/10/27 16:11:52;;;;;;;6.82;3.97;;;18.60;99.20;;;;;;5115604;28;19945;-57
2021/10/27 16:14:22;;;;;;;5.53;3.83;;;18.60;99.10;;;;;;5115511;28;20436;-57
2021/10/27 16:16:50;;;;;;;6.55;3.80;;;18.60;99.20;;;;;;5115671;28;20051;-57
2021/10/27 16:19:21;;;;;;;6.43;3.95;;;18.60;99.20;;;;;;5082401;28;20054;-57
2021/10/27 16:22:04;;;;;;;6.85;4.43;;;18.50;99.30;;;;;;5115671;28;20494;-57
2021/10/27 16:24:32;;;;;;;7.78;4.00;;;18.50;99.30;;;;;;5115461;28;20040;-56
2021/10/27 16:26:59;;;;;;;8.85;4.30;;;18.50;99.30;;;;;;5115185;28;20043;-56
2021/10/27 16:29:27;;;;;;;6.13;3.97;;;18.50;99.50;;;;;;5115341;28;20051;-57
2021/10/27 16:31:55;;;;;;;7.25;4.30;;;18.40;99.50;;;;;;5098687;28;20051;-56
2021/10/27 16:34:22;;;;;;;6.78;3.42;;;18.40;99.60;;;;;;5115179;28;20048;-57
2021/10/27 16:36:50;;;;;;;6.38;4.32;;;18.40;99.60;;;;;;5098142;28;20100;-57
2021/10/27 16:39:19;;;;;;;6.88;3.78;;;18.30;99.60;;;;;;5115151;28;20044;-57
2021/10/27 16:41:46;;;;;;;6.38;3.80;;;18.30;99.70;;;;;;5098165;28;20066;-56
2021/10/27 16:44:14;;;;;;;8.15;4.28;;;18.30;99.70;;;;;;5114674;28;20054;-57
2021/10/27 16:46:42;;;;;;;13.05;3.95;;;18.20;99.80;;;;;;5114566;28;20062;-58
2021/10/27 16:49:10;;;;;;;8.07;3.22;;;18.20;99.80;;;;;;5114156;28;20043;-56
2021/10/27 16:51:37;;;;;;;9.45;5.00;;;18.20;99.80;;;;;;5115620;28;20554;-57
2021/10/27 16:54:05;;;;;;;10.00;4.35;;;18.20;99.80;;;;;;5097891;28;20143;-58
2021/10/27 16:56:33;;;;;;;8.05;4.82;;;18.20;99.90;;;;;;5114904;28;20123;-57
2021/10/27 16:59:01;;;;;;;7.00;3.70;;;18.10;99.90;;;;;;5114513;28;20101;-58
2021/10/27 17:01:29;;;;;;;5.53;3.92;;;18.10;99.90;;;;;;5114457;28;20047;-56
2021/10/27 17:03:57;;;;;;;8.27;3.80;;;18.10;99.90;;;;;;5114261;28;20401;-56
2021/10/27 17:06:25;;;;;;;8.38;4.13;;;18.10;99.90;;;;;;5080356;28;20043;-56
2021/10/27 17:08:53;;;;;;;5.45;4.18;;;18.10;99.90;;;;;;5114216;28;20044;-56
2021/10/27 17:11:24;;;;;;;5.72;4.32;;;18.10;99.90;;;;;;5097840;28;20043;-57
2021/10/27 17:13:52;;;;;;;8.25;4.10;;;18.10;99.90;;;;;;5097375;28;20098;-58
2021/10/27 17:16:20;;;;;;;5.95;4.03;;;18.10;99.90;;;;;;5114064;28;20408;-57
2021/10/27 17:18:51;;;;;;;7.22;3.60;;;18.00;99.90;;;;;;5097191;28;20044;-57
2021/10/27 17:21:19;;;;;;;8.70;4.47;;;18.00;99.90;;;;;;5114432;28;20055;-58
2021/10/27 17:23:52;;;;;;;9.23;5.10;;;18.00;99.90;;;;;;5113419;28;20535;-57
2021/10/27 17:26:20;;;;;;;9.48;4.57;;;18.00;99.90;;;;;;5097270;28;20056;-57
2021/10/27 17:28:48;;;;;;;9.27;4.05;;;17.90;99.90;;;;;;5114157;28;20071;-56
2021/10/27 17:31:16;;;;;;;7.38;3.97;;;17.90;99.90;;;;;;5114003;28;20480;-57
2021/10/27 17:33:44;;;;;;;6.93;3.88;;;17.90;99.90;;;;;;5113885;28;20047;-57
2021/10/27 17:36:12;;;;;;;7.47;3.95;;;17.90;99.90;;;;;;5113938;28;20056;-56
2021/10/27 17:38:41;;;;;;;7.22;4.18;;;17.80;99.90;;;;;;5115056;28;20516;-58
2021/10/27 17:41:10;;;;;;;5.85;4.28;;;17.80;99.90;;;;;;5097099;28;20040;-57
2021/10/27 17:43:38;;;;;;;7.07;4.65;;;17.80;99.90;;;;;;5096812;28;20393;-57
2021/10/27 17:46:07;;;;;;;8.00;4.18;;;17.80;99.90;;;;;;5080172;28;20394;-57
2021/10/27 17:48:39;;;;;;;10.30;4.75;;;17.80;99.90;;;;;;5096904;28;20127;-57
2021/10/27 17:51:18;;;;;;;7.78;5.50;;;17.80;99.90;;;;;;5113563;28;20048;-57
2021/10/27 17:59:18;;;;;;;9.32;4.93;;;17.80;99.90;;;;;;5095368;28;20047;-60
2021/10/27 18:01:48;;;;;;;12.23;4.45;;;17.70;99.90;;;;;;5113407;28;20039;-57
2021/10/27 18:04:17;;;;;;;6.32;4.40;;;17.70;99.90;;;;;;5096137;28;20044;-56
2021/10/27 18:06:44;;;;;;;6.25;4.60;;;17.70;99.90;;;;;;5114421;28;20035;-56
2021/10/27 18:09:14;;;;;;;10.02;4.70;;;17.70;99.90;;;;;;5112830;28;20047;-56
2021/10/27 18:11:47;;;;;;;8.25;4.55;;;17.70;99.90;;;;;;5079639;28;20051;-56
2021/10/27 18:14:18;;;;;;;7.60;4.43;;;17.60;99.90;;;;;;5113289;28;20463;-57
2021/10/27 18:19:27;;;;;;;8.07;5.20;;;17.60;99.90;;;;;;5114180;28;20392;-56
2021/10/27 18:21:59;;;;;;;6.38;4.57;;;17.60;99.90;;;;;;5113016;28;20062;-57